»·PEaware :: N544DM KTEX-KASE

N544DM :: KTEX-KASE

FLIGHT INFORMATION

Flight Status: Arrived
Operator: Privately registered:
United States
More flights under this callsign
Pilot: Rick E. (42686)
Aircraft: SOCATA TBM-900
(TBM9)
More flights by this aircraft type
Origin: KTEX Telluride Regl
United States
Destination: KASE Aspen-Pitkin Co/Sardy
United States
More flights between these airports :: More routes between these airports
Route: ETL V68 MTJ V361 DBL
File this flight plan on PilotEdge
Remarks:
Altitude:
(Current/Filed)
17,000ft
Speed:
(Current/Filed)
292kts
Departed: 22-Nov-23 12:30 PM
Arrived: 22-Nov-23 01:30 PM
Distance/Time
Traveled:
91nm/1:00
Distance/Time
To Go:
Arrived

Flight Plot

Page will automatically refresh every two minutes.


Map Options




Map Legend


Flown Route
Filed Route
Departure Airport
Arrival Airport
Navaid (VOR, NDB)
Fix

Horizontal Profiles

Position Reports

Time Latitude Longitude Heading Altitude Ground
Speed
22-Nov-23 12:19 37.953918 -107.900957 197 9052ft 0kts
22-Nov-23 12:20 37.953918 -107.900957 197 9052ft 0kts
22-Nov-23 12:21 37.953918 -107.900957 197 9052ft 0kts
22-Nov-23 12:22 37.953918 -107.900957 197 9052ft 0kts
22-Nov-23 12:23 37.953918 -107.900957 197 9052ft 0kts
22-Nov-23 12:24 37.953669 -107.901013 177 9054ft 8kts
22-Nov-23 12:25 37.952663 -107.897965 104 9065ft 10kts
22-Nov-23 12:26 37.952347 -107.896775 137 9070ft 0kts
22-Nov-23 12:27 37.952347 -107.896775 137 9070ft 0kts
22-Nov-23 12:28 37.952038 -107.896692 198 9071ft 10kts
22-Nov-23 12:29 37.955566 -107.919079 284 9324ft 150kts
22-Nov-23 12:30 37.972741 -107.984358 287 11099ft 227kts
22-Nov-23 12:31 37.992308 -108.063178 286 12672ft 237kts
22-Nov-23 12:32 38.012162 -108.143768 286 14271ft 242kts
22-Nov-23 12:33 38.048889 -108.212784 333 15783ft 250kts
22-Nov-23 12:34 38.115855 -108.200482 31 16951ft 272kts
22-Nov-23 12:35 38.125409 -108.193037 31 16956ft 0kts
22-Nov-23 12:36 38.125409 -108.193037 31 16956ft 0kts
22-Nov-23 12:47 37.953927 -107.900959 189 9052ft 0kts
22-Nov-23 12:48 37.953927 -107.900959 189 9052ft 0kts
22-Nov-23 12:49 37.953634 -107.901002 181 9050ft 10kts
22-Nov-23 12:50 37.952561 -107.897492 105 9067ft 9kts
22-Nov-23 12:51 37.952323 -107.896750 136 9070ft 0kts
22-Nov-23 12:52 37.954283 -107.911706 282 9137ft 133kts
22-Nov-23 12:53 37.967179 -107.976291 285 10691ft 217kts
22-Nov-23 12:54 37.983839 -108.051878 285 12140ft 227kts
22-Nov-23 12:55 38.008470 -108.127898 288 13634ft 235kts
22-Nov-23 12:56 38.034815 -108.203326 316 15065ft 241kts
22-Nov-23 12:57 38.097971 -108.213986 27 16547ft 247kts
22-Nov-23 12:58 38.160401 -108.166237 31 16907ft 279kts
22-Nov-23 12:59 38.228698 -108.113724 31 16899ft 290kts
22-Nov-23 13:00 38.297841 -108.060461 31 16907ft 290kts
22-Nov-23 13:01 38.366721 -108.007266 31 16916ft 291kts
22-Nov-23 13:02 38.435924 -107.953712 31 16926ft 290kts
22-Nov-23 13:03 38.505034 -107.900196 29 16919ft 290kts
22-Nov-23 13:04 38.577837 -107.856557 24 16926ft 290kts
22-Nov-23 13:05 38.650400 -107.813323 24 16917ft 290kts
22-Nov-23 13:06 38.721853 -107.764841 43 16920ft 289kts
22-Nov-23 13:07 38.780734 -107.694227 43 16908ft 290kts
22-Nov-23 13:08 38.839771 -107.623347 43 16897ft 291kts
22-Nov-23 13:09 38.898341 -107.552955 43 16888ft 292kts
22-Nov-23 13:10 38.958207 -107.480832 42 16879ft 292kts
22-Nov-23 13:11 39.017296 -107.409418 43 16865ft 291kts
22-Nov-23 13:12 39.076550 -107.337636 43 16864ft 293kts
22-Nov-23 13:13 39.135860 -107.265604 43 16869ft 293kts
22-Nov-23 13:14 39.195506 -107.193089 43 16876ft 295kts
22-Nov-23 13:15 39.256331 -107.118596 43 15889ft 311kts
22-Nov-23 13:16 39.318704 -107.042520 43 14562ft 299kts
22-Nov-23 13:17 39.377467 -106.970497 42 13952ft 279kts
22-Nov-23 13:18 39.428843 -106.907402 42 13914ft 229kts
22-Nov-23 13:19 39.483563 -106.887385 345 13959ft 207kts
22-Nov-23 13:20 39.539896 -106.899319 327 13999ft 204kts
22-Nov-23 13:21 39.530843 -106.951897 186 13990ft 202kts
22-Nov-23 13:22 39.480839 -106.917284 150 13965ft 206kts
22-Nov-23 13:23 39.428510 -106.892953 183 13929ft 206kts
22-Nov-23 13:24 39.372499 -106.887847 178 13087ft 187kts
22-Nov-23 13:25 39.325622 -106.883042 178 12102ft 168kts
22-Nov-23 13:26 39.289610 -106.879063 177 10488ft 123kts
22-Nov-23 13:27 39.256792 -106.880289 179 8809ft 120kts
22-Nov-23 13:28 39.228051 -106.871121 159 7716ft 76kts
22-Nov-23 13:29 39.225768 -106.869093 72 7735ft 0kts
22-Nov-23 13:30 39.224311 -106.868211 157 7747ft 9kts
22-Nov-23 13:31 39.224290 -106.867785 343 7748ft 0kts

Navigation Log

Ident Type
Flight plan parsing failed, navigation log unavailable